Time;durP1;ratioP1;P1;durP2;ratioP2;P2;SDS_P1;SDS_P2;PMS_P1;PMS_P2;Temp;Humidity;BMP_temperature;BMP_pressure;BME280_temperature;BME280_humidity;BME280_pressure;Samples;Min_cycle;Max_cycle;Signal;HPM_P1;HPM_P2
2023/09/26 00:00:28;;;;;;;;;;;;;;;-140.72;100.00;52804.81;5071275;28;19920;-69
2023/09/26 00:02:56;;;;;;;;;;;;;;;-140.72;100.00;52784.53;5071933;28;19973;-69
2023/09/26 00:05:27;;;;;;;;;;;;;;;-140.72;100.00;52804.81;5072965;28;19931;-69
2023/09/26 00:07:52;;;;;;;;;;;;;;;-140.72;100.00;52817.00;5074038;28;19920;-69
2023/09/26 00:10:22;;;;;;;;;;;;;;;-140.72;100.00;52800.75;5076193;28;19935;-69
2023/09/26 00:12:48;;;;;;;;;;;;;;;-140.72;100.00;52782.50;5074492;28;20305;-69
2023/09/26 00:15:13;;;;;;;;;;;;;;;-140.72;100.00;52784.53;5071188;28;19920;-69
2023/09/26 00:17:38;;;;;;;;;;;;;;;-140.72;100.00;52804.81;5073313;28;19920;-68
2023/09/26 00:20:27;;;;;;;;;;;;;;;-140.72;100.00;52798.72;5075262;28;19925;-69
2023/09/26 00:22:53;;;;;;;;;;;;;;;-140.72;100.00;52804.81;5067842;28;19987;-69
2023/09/26 00:25:18;;;;;;;;;;;;;;;-140.72;100.00;52774.38;5070795;28;20394;-69
2023/09/26 00:27:43;;;;;;;;;;;;;;;-140.72;100.00;52776.41;5072123;28;20386;-69
2023/09/26 00:30:09;;;;;;;;;;;;;;;-140.72;100.00;52837.28;5072493;28;19943;-69
2023/09/26 00:32:36;;;;;;;;;;;;;;;-140.72;100.00;52798.72;5071095;28;20010;-69
2023/09/26 00:35:02;;;;;;;;;;;;;;;-140.72;100.00;52804.81;5080219;28;19927;-69
2023/09/26 00:37:27;;;;;;;;;;;;;;;-140.72;100.00;52823.09;5075154;28;19920;-69
2023/09/26 00:39:53;;;;;;;;;;;;;;;-140.72;100.00;52774.38;5071051;28;19928;-69
2023/09/26 00:42:18;;;;;;;;;;;;;;;-140.72;100.00;52804.81;5070427;28;19921;-68
2023/09/26 00:44:43;;;;;;;;;;;;;;;-140.72;100.00;52829.19;5068432;28;20287;-70
2023/09/26 00:47:16;;;;;;;;;;;;;;;-140.72;100.00;52845.41;5067781;28;20299;-69
2023/09/26 00:49:41;;;;;;;;;;;;;;;-140.72;100.00;52808.88;5076055;28;19920;-69
2023/09/26 00:52:06;;;;;;;;;;;;;;;-140.72;100.00;52808.88;5066585;28;19970;-69
2023/09/26 00:54:32;;;;;;;;;;;;;;;-140.72;100.00;52821.06;5074709;28;20268;-69
2023/09/26 00:56:57;;;;;;;;;;;;;;;-140.72;100.00;52800.75;5072372;28;19944;-69
2023/09/26 00:59:23;;;;;;;;;;;;;;;-140.72;100.00;52808.88;5067895;28;20375;-69
2023/09/26 01:01:50;;;;;;;;;;;;;;;-140.72;100.00;52790.63;5065131;28;19920;-69
2023/09/26 01:04:15;;;;;;;;;;;;;;;-140.72;100.00;52800.75;5074349;28;19921;-69
2023/09/26 01:06:47;;;;;;;;;;;;;;;-140.72;100.00;52788.59;5069121;28;20325;-69
2023/09/26 01:09:12;;;;;;;;;;;;;;;-140.72;100.00;52792.66;5059349;28;19921;-69
2023/09/26 01:12:09;;;;;;;;;;;;;;;-140.72;100.00;52788.59;5073792;28;19927;-69
2023/09/26 01:14:35;;;;;;;;;;;;;;;-140.72;100.00;52829.19;5070989;28;19966;-69
2023/09/26 01:17:00;;;;;;;;;;;;;;;-140.72;100.00;52790.63;5071754;28;19924;-69
2023/09/26 01:19:25;;;;;;;;;;;;;;;-140.72;100.00;52845.41;5069207;28;19986;-69
2023/09/26 01:21:52;;;;;;;;;;;;;;;-140.72;100.00;52804.81;5076863;28;19943;-69
2023/09/26 01:24:17;;;;;;;;;;;;;;;-140.72;100.00;52796.72;5066576;28;20332;-69
2023/09/26 01:26:42;;;;;;;;;;;;;;;-140.72;100.00;52800.75;5078808;28;19922;-69
2023/09/26 01:29:07;;;;;;;;;;;;;;;-140.72;100.00;52833.22;5071054;28;19946;-69
2023/09/26 01:31:33;;;;;;;;;;;;;;;-140.72;100.00;52829.19;5073719;28;19923;-69
2023/09/26 01:33:58;;;;;;;;;;;;;;;-140.72;100.00;52786.56;5074140;28;19974;-69
2023/09/26 01:36:27;;;;;;;;;;;;;;;-140.72;100.00;52814.97;5066058;28;19925;-69
2023/09/26 01:38:52;;;;;;;;;;;;;;;-140.72;100.00;52778.44;5070352;28;19973;-69
2023/09/26 01:41:17;;;;;;;;;;;;;;;-140.72;100.00;52819.03;5064757;28;20012;-69
2023/09/26 01:46:18;;;;;;;;;;;;;;;-140.72;100.00;52806.84;5179581;22;19925;-70
2023/09/26 01:48:55;;;;;;;;;;;;;;;-140.72;100.00;52817.00;5029916;28;19968;-70
2023/09/26 01:51:28;;;;;;;;;;;;;;;-140.72;100.00;52825.13;5003506;28;19932;-70
2023/09/26 01:53:53;;;;;;;;;;;;;;;-140.72;100.00;52835.25;5012141;28;19940;-70
2023/09/26 01:56:19;;;;;;;;;;;;;;;-140.72;100.00;52821.06;5022327;28;20351;-70
2023/09/26 01:58:44;;;;;;;;;;;;;;;-140.72;100.00;52827.16;5018245;28;20371;-71
2023/09/26 02:01:09;;;;;;;;;;;;;;;-140.72;100.00;52829.19;5014214;28;19926;-70
2023/09/26 02:03:35;;;;;;;;;;;;;;;-140.72;100.00;52829.19;5014553;28;19947;-70
2023/09/26 02:06:00;;;;;;;;;;;;;;;-140.72;100.00;52833.22;5007658;28;20314;-70
2023/09/26 02:08:26;;;;;;;;;;;;;;;-140.72;100.00;52786.56;5014201;28;20430;-70
2023/09/26 02:10:51;;;;;;;;;;;;;;;-140.72;100.00;52814.97;5013520;28;19928;-70
2023/09/26 02:13:16;;;;;;;;;;;;;;;-140.72;100.00;52821.06;5003327;28;20018;-70
2023/09/26 02:15:41;;;;;;;;;;;;;;;-140.72;100.00;52827.16;5020902;28;20000;-69
2023/09/26 02:18:07;;;;;;;;;;;;;;;-140.72;100.00;52794.69;5010448;28;19975;-70
2023/09/26 02:20:35;;;;;;;;;;;;;;;-140.72;100.00;52802.78;5013947;28;19964;-70
2023/09/26 02:23:00;;;;;;;;;;;;;;;-140.72;100.00;52845.41;5007656;28;19928;-70
2023/09/26 02:25:27;;;;;;;;;;;;;;;-140.72;100.00;52804.81;5011557;28;20354;-70
2023/09/26 02:27:53;;;;;;;;;;;;;;;-140.72;100.00;52819.03;5008056;28;20012;-70
2023/09/26 02:30:23;;;;;;;;;;;;;;;-140.72;100.00;52825.13;5004669;28;20007;-70
2023/09/26 02:32:48;;;;;;;;;;;;;;;-140.72;100.00;52810.91;5014170;28;20367;-70
2023/09/26 02:35:14;;;;;;;;;;;;;;;-140.72;100.00;52794.69;5008591;28;19932;-70
2023/09/26 02:37:39;;;;;;;;;;;;;;;-140.72;100.00;52817.00;5013347;28;19917;-70
2023/09/26 02:40:11;;;;;;;;;;;;;;;-140.72;100.00;52831.19;5008986;28;19924;-70
2023/09/26 02:42:37;;;;;;;;;;;;;;;-140.72;100.00;52798.72;4996127;28;19922;-71
2023/09/26 02:45:02;;;;;;;;;;;;;;;-140.72;100.00;52843.38;5002725;28;19918;-71
2023/09/26 02:47:28;;;;;;;;;;;;;;;-140.72;100.00;52792.66;4992594;28;19930;-73
2023/09/26 02:49:53;;;;;;;;;;;;;;;-140.72;100.00;52817.00;4993285;28;19960;-71
2023/09/26 02:52:18;;;;;;;;;;;;;;;-140.72;100.00;52808.88;4990004;28;19930;-71
2023/09/26 02:54:43;;;;;;;;;;;;;;;-140.72;100.00;52823.09;4981903;28;19918;-70
2023/09/26 02:57:09;;;;;;;;;;;;;;;-140.72;100.00;52847.44;4993955;28;19922;-70
2023/09/26 02:59:34;;;;;;;;;;;;;;;-140.72;100.00;52829.19;4984933;28;19929;-70
2023/09/26 03:01:59;;;;;;;;;;;;;;;-140.72;100.00;52814.97;4992990;28;19926;-71
2023/09/26 03:04:24;;;;;;;;;;;;;;;-140.72;100.00;52764.25;4993518;28;19922;-70
2023/09/26 03:06:50;;;;;;;;;;;;;;;-140.72;100.00;52845.41;4998033;28;19944;-70
2023/09/26 03:09:15;;;;;;;;;;;;;;;-140.72;100.00;52812.94;4993462;28;20338;-71
2023/09/26 03:11:41;;;;;;;;;;;;;;;-140.72;100.00;52827.16;4996716;28;19964;-70
2023/09/26 03:14:06;;;;;;;;;;;;;;;-140.72;100.00;52825.13;4995171;28;19921;-71
2023/09/26 03:16:31;;;;;;;;;;;;;;;-140.72;100.00;52825.13;4996179;28;20012;-70
2023/09/26 03:18:57;;;;;;;;;;;;;;;-140.72;100.00;52812.94;4993767;28;19980;-71
2023/09/26 03:21:22;;;;;;;;;;;;;;;-140.72;100.00;52800.75;5003815;28;20019;-71
2023/09/26 03:23:47;;;;;;;;;;;;;;;-140.72;100.00;52794.69;4992854;28;19922;-71
2023/09/26 03:26:14;;;;;;;;;;;;;;;-140.72;100.00;52831.19;4996122;28;20362;-71
2023/09/26 03:28:39;;;;;;;;;;;;;;;-140.72;100.00;52849.47;4992441;28;19922;-71
2023/09/26 03:31:04;;;;;;;;;;;;;;;-140.72;100.00;52812.94;4986599;28;19932;-71
2023/09/26 03:33:29;;;;;;;;;;;;;;;-140.72;100.00;52837.28;4995029;28;19926;-71
2023/09/26 03:35:56;;;;;;;;;;;;;;;-140.72;100.00;52835.25;4995832;28;19933;-71
2023/09/26 03:38:21;;;;;;;;;;;;;;;-140.72;100.00;52829.19;4993005;28;19926;-71
2023/09/26 03:40:47;;;;;;;;;;;;;;;-140.72;100.00;52812.94;4986446;28;19949;-71
2023/09/26 03:43:12;;;;;;;;;;;;;;;-140.72;100.00;52823.09;4985814;28;19922;-71
2023/09/26 03:45:37;;;;;;;;;;;;;;;-140.72;100.00;52790.63;4988981;28;20414;-71
2023/09/26 03:48:03;;;;;;;;;;;;;;;-140.72;100.00;52792.66;4993545;28;19944;-71
2023/09/26 03:50:28;;;;;;;;;;;;;;;-140.72;100.00;52825.13;4988570;28;20065;-71
2023/09/26 03:52:53;;;;;;;;;;;;;;;-140.72;100.00;52837.28;4987173;28;19922;-71
2023/09/26 03:55:18;;;;;;;;;;;;;;;-140.72;100.00;52802.78;4997090;28;19921;-71
2023/09/26 03:57:44;;;;;;;;;;;;;;;-140.72;100.00;52802.78;4997920;28;19922;-71
2023/09/26 04:00:16;;;;;;;;;;;;;;;-140.72;100.00;52817.00;4995884;28;19952;-71
2023/09/26 04:02:42;;;;;;;;;;;;;;;-140.72;100.00;52837.28;5007454;28;19925;-71
2023/09/26 04:05:08;;;;;;;;;;;;;;;-140.72;100.00;52853.53;5006588;28;20028;-71
2023/09/26 04:07:33;;;;;;;;;;;;;;;-140.72;100.00;52802.78;4982976;28;20012;-71
2023/09/26 04:09:58;;;;;;;;;;;;;;;-140.72;100.00;52829.19;4995972;28;19922;-71
2023/09/26 04:12:23;;;;;;;;;;;;;;;-140.72;100.00;52849.47;4993596;28;20364;-71
2023/09/26 04:14:49;;;;;;;;;;;;;;;-140.72;100.00;52804.81;4988278;28;19922;-71
2023/09/26 04:17:14;;;;;;;;;;;;;;;-140.72;100.00;52847.44;4986664;28;19936;-71
2023/09/26 04:19:39;;;;;;;;;;;;;;;-140.72;100.00;52851.50;4997602;28;20260;-71
2023/09/26 04:22:05;;;;;;;;;;;;;;;-140.72;100.00;52829.19;4995887;28;19926;-73
2023/09/26 04:24:30;;;;;;;;;;;;;;;-140.72;100.00;52821.06;4991207;28;19930;-74
2023/09/26 04:26:55;;;;;;;;;;;;;;;-140.72;100.00;52817.00;4997728;28;19932;-72
2023/09/26 04:29:21;;;;;;;;;;;;;;;-140.72;100.00;52865.69;4991650;28;20414;-74
2023/09/26 04:31:46;;;;;;;;;;;;;;;-140.72;100.00;52817.00;4993473;28;19921;-72
2023/09/26 04:34:11;;;;;;;;;;;;;;;-140.72;100.00;52823.09;4990498;28;20260;-76
2023/09/26 04:36:36;;;;;;;;;;;;;;;-140.72;100.00;52808.88;4987863;28;19922;-75
2023/09/26 04:39:01;;;;;;;;;;;;;;;-140.72;100.00;52833.22;4989668;28;19926;-74
2023/09/26 04:41:27;;;;;;;;;;;;;;;-140.72;100.00;52849.47;4991833;28;19926;-75
2023/09/26 04:43:52;;;;;;;;;;;;;;;-140.72;100.00;52841.34;4990420;28;19972;-74
2023/09/26 04:46:17;;;;;;;;;;;;;;;-140.72;100.00;52833.22;4992159;28;19957;-74
2023/09/26 04:48:43;;;;;;;;;;;;;;;-140.72;100.00;52806.84;4990483;28;19965;-74
2023/09/26 04:51:09;;;;;;;;;;;;;;;-140.72;100.00;52827.16;4991204;28;19984;-72
2023/09/26 04:53:35;;;;;;;;;;;;;;;-140.72;100.00;52806.84;4990918;28;19922;-72
2023/09/26 04:56:00;;;;;;;;;;;;;;;-140.72;100.00;52821.06;4988766;28;19996;-72
2023/09/26 04:58:26;;;;;;;;;;;;;;;-140.72;100.00;52847.44;4991968;28;19960;-72
2023/09/26 05:00:51;;;;;;;;;;;;;;;-140.72;100.00;52792.66;4989794;28;20433;-74
2023/09/26 05:03:16;;;;;;;;;;;;;;;-140.72;100.00;52825.13;4990506;28;19925;-73
2023/09/26 05:05:42;;;;;;;;;;;;;;;-140.72;100.00;52798.72;4989558;28;19972;-73
2023/09/26 05:08:08;;;;;;;;;;;;;;;-140.72;100.00;52853.53;4992693;28;20033;-71
2023/09/26 05:10:37;;;;;;;;;;;;;;;-140.72;100.00;52845.41;4992988;28;20024;-74
2023/09/26 05:13:02;;;;;;;;;;;;;;;-140.72;100.00;52796.72;4988097;28;20572;-71
2023/09/26 05:15:27;;;;;;;;;;;;;;;-140.72;100.00;52810.91;4989330;28;19925;-71
2023/09/26 05:17:53;;;;;;;;;;;;;;;-140.72;100.00;52814.97;4991502;28;19932;-71
2023/09/26 05:20:18;;;;;;;;;;;;;;;-140.72;100.00;52823.09;4989601;28;19929;-71
2023/09/26 05:22:44;;;;;;;;;;;;;;;-140.72;100.00;52853.53;4991936;28;20295;-71
2023/09/26 05:25:10;;;;;;;;;;;;;;;-140.72;100.00;52873.81;4989749;28;19965;-71
2023/09/26 05:27:36;;;;;;;;;;;;;;;-140.72;100.00;52829.19;4991580;28;19965;-71
2023/09/26 05:30:01;;;;;;;;;;;;;;;-140.72;100.00;52825.13;4988919;28;19930;-71
2023/09/26 05:32:26;;;;;;;;;;;;;;;-140.72;100.00;52800.75;4990345;28;20339;-71
2023/09/26 05:34:52;;;;;;;;;;;;;;;-140.72;100.00;52825.13;4985990;28;19925;-71
2023/09/26 05:37:17;;;;;;;;;;;;;;;-140.72;100.00;52827.16;4988981;28;19969;-71
2023/09/26 05:39:42;;;;;;;;;;;;;;;-140.72;100.00;52845.41;4986453;28;20091;-71
2023/09/26 05:42:10;;;;;;;;;;;;;;;-140.72;100.00;52847.44;4996620;28;22263;-76
2023/09/26 05:44:35;;;;;;;;;;;;;;;-140.72;100.00;52837.28;4988854;28;19918;-73
2023/09/26 05:47:09;;;;;;;;;;;;;;;-140.72;100.00;52829.19;4994307;28;19929;-76
2023/09/26 05:49:34;;;;;;;;;;;;;;;-140.72;100.00;52831.19;4989481;28;19936;-73
2023/09/26 05:52:01;;;;;;;;;;;;;;;-140.72;100.00;52845.41;4989073;28;20013;-72
2023/09/26 05:54:28;;;;;;;;;;;;;;;-140.72;100.00;52829.19;4993416;28;19936;-73
2023/09/26 05:56:53;;;;;;;;;;;;;;;-140.72;100.00;52849.47;4989089;28;19918;-73
2023/09/26 05:59:18;;;;;;;;;;;;;;;-140.72;100.00;52843.38;4990161;28;20402;-73
2023/09/26 06:01:44;;;;;;;;;;;;;;;-140.72;100.00;52814.97;4986800;28;19921;-73
2023/09/26 06:04:10;;;;;;;;;;;;;;;-140.72;100.00;52875.84;4985502;28;19936;-74
2023/09/26 06:06:35;;;;;;;;;;;;;;;-140.72;100.00;52853.53;4990328;28;19980;-74
2023/09/26 06:09:00;;;;;;;;;;;;;;;-140.72;100.00;52792.66;4992086;28;19930;-74
2023/09/26 06:11:25;;;;;;;;;;;;;;;-140.72;100.00;52857.59;4990618;28;19928;-73
2023/09/26 06:13:52;;;;;;;;;;;;;;;-140.72;100.00;52806.84;4994279;28;20269;-76
2023/09/26 06:16:18;;;;;;;;;;;;;;;-140.72;100.00;52833.22;4988067;28;19926;-72
2023/09/26 06:18:43;;;;;;;;;;;;;;;-140.72;100.00;52792.66;4990638;28;19975;-72
2023/09/26 06:21:09;;;;;;;;;;;;;;;-140.72;100.00;52810.91;4994141;28;19965;-71
2023/09/26 06:26:40;;;;;;;;;;;;;;;-140.72;100.00;52812.94;4993016;28;20310;-72
2023/09/26 06:29:05;;;;;;;;;;;;;;;-140.72;100.00;52821.06;4987256;28;19918;-72
2023/09/26 06:31:30;;;;;;;;;;;;;;;-140.72;100.00;52784.53;4989329;28;21021;-72
2023/09/26 06:34:00;;;;;;;;;;;;;;;-140.72;100.00;52833.22;4997667;28;20339;-72
2023/09/26 06:36:30;;;;;;;;;;;;;;;-140.72;100.00;52792.66;4986287;28;19922;-72
2023/09/26 06:38:55;;;;;;;;;;;;;;;-140.72;100.00;52827.16;5010936;28;19918;-72
2023/09/26 06:41:20;;;;;;;;;;;;;;;-140.72;100.00;52833.22;4992973;28;19917;-72
2023/09/26 06:43:46;;;;;;;;;;;;;;;-140.72;100.00;52800.75;4997232;28;19945;-72
2023/09/26 06:46:11;;;;;;;;;;;;;;;-140.72;100.00;52806.84;4989472;28;19948;-72
2023/09/26 06:48:41;;;;;;;;;;;;;;;-140.72;100.00;52814.97;4978614;28;19918;-72
2023/09/26 06:51:08;;;;;;;;;;;;;;;-140.72;100.00;52802.78;4986241;28;19926;-76
2023/09/26 06:53:33;;;;;;;;;;;;;;;-140.72;100.00;52788.59;4992629;28;20029;-76
2023/09/26 06:55:59;;;;;;;;;;;;;;;-140.72;100.00;52800.75;4988902;28;20008;-74
2023/09/26 06:58:24;;;;;;;;;;;;;;;-140.72;100.00;52796.72;4986641;28;19965;-74
2023/09/26 07:00:50;;;;;;;;;;;;;;;-140.72;100.00;52827.16;5003870;28;19925;-74
2023/09/26 07:03:15;;;;;;;;;;;;;;;-140.72;100.00;52754.09;4989690;28;19986;-74
2023/09/26 07:05:40;;;;;;;;;;;;;;;-140.72;100.00;52792.66;4999442;28;19922;-75
2023/09/26 07:08:38;;;;;;;;;;;;;;;-140.72;100.00;52812.94;4991525;28;19964;-74
2023/09/26 07:11:06;;;;;;;;;;;;;;;-140.72;100.00;52814.97;4993805;28;19923;-74
2023/09/26 07:13:34;;;;;;;;;;;;;;;-140.72;100.00;52800.75;4988604;28;19929;-75
2023/09/26 07:16:30;;;;;;;;;;;;;;;-140.72;100.00;52802.78;4993041;28;19936;-75
2023/09/26 07:18:55;;;;;;;;;;;;;;;-140.72;100.00;52800.75;4987501;28;19930;-75
2023/09/26 07:24:11;;;;;;;;;;;;;;;-140.72;100.00;52766.25;4984087;28;19968;-75
2023/09/26 07:26:37;;;;;;;;;;;;;;;-140.72;100.00;52756.13;4996201;28;19925;-75
2023/09/26 07:29:02;;;;;;;;;;;;;;;-140.72;100.00;52784.53;4996737;28;19932;-74
2023/09/26 07:31:29;;;;;;;;;;;;;;;-140.72;100.00;52768.28;4992076;28;19926;-73
2023/09/26 07:33:55;;;;;;;;;;;;;;;-140.72;100.00;52770.31;4988338;28;19930;-74
2023/09/26 07:36:20;;;;;;;;;;;;;;;-140.72;100.00;52778.44;4985105;28;19992;-74
2023/09/26 07:38:45;;;;;;;;;;;;;;;-140.72;100.00;52739.88;5005355;28;19929;-73
2023/09/26 07:41:10;;;;;;;;;;;;;;;-140.72;100.00;52752.06;4992404;28;19933;-73
2023/09/26 07:43:36;;;;;;;;;;;;;;;-140.72;100.00;52772.34;5005091;28;19926;-73
2023/09/26 07:46:09;;;;;;;;;;;;;;;-140.72;100.00;52772.34;4986828;28;19922;-75
2023/09/26 07:48:34;;;;;;;;;;;;;;;-140.72;100.00;52768.28;4981732;28;20081;-72
2023/09/26 07:51:00;;;;;;;;;;;;;;;-140.72;100.00;52715.53;5003357;28;20009;-72
2023/09/26 07:53:25;;;;;;;;;;;;;;;-140.72;100.00;52711.47;4985429;28;19929;-72
2023/09/26 07:55:50;;;;;;;;;;;;;;;-140.72;100.00;52760.19;4992290;28;19921;-72
2023/09/26 07:58:16;;;;;;;;;;;;;;;-140.72;100.00;52721.63;4993657;28;19921;-72
2023/09/26 08:00:42;;;;;;;;;;;;;;;-140.72;100.00;52748.00;4993960;28;19961;-72
2023/09/26 08:03:07;;;;;;;;;;;;;;;-140.72;100.00;52760.19;4990269;28;20336;-73
2023/09/26 08:05:32;;;;;;;;;;;;;;;-140.72;100.00;52727.72;4990248;28;20400;-72
2023/09/26 08:07:59;;;;;;;;;;;;;;;-140.72;100.00;52739.88;4995843;28;19925;-72
2023/09/26 08:10:24;;;;;;;;;;;;;;;-140.72;100.00;52719.59;4989815;28;19926;-73
2023/09/26 08:12:49;;;;;;;;;;;;;;;-140.72;100.00;52715.53;4995505;28;20346;-72
2023/09/26 08:15:14;;;;;;;;;;;;;;;-140.72;100.00;52715.53;4987651;28;20430;-73
2023/09/26 08:17:40;;;;;;;;;;;;;;;-140.72;100.00;52733.78;4985638;28;19925;-72
2023/09/26 08:20:05;;;;;;;;;;;;;;;-140.72;100.00;52674.94;4990662;28;19928;-72
2023/09/26 08:22:30;;;;;;;;;;;;;;;-140.72;100.00;52699.31;4995895;28;19925;-73
2023/09/26 08:24:56;;;;;;;;;;;;;;;-140.72;100.00;52739.88;4993203;28;19977;-73
2023/09/26 08:27:21;;;;;;;;;;;;;;;-140.72;100.00;52676.97;4996056;28;20024;-73
2023/09/26 08:29:46;;;;;;;;;;;;;;;-140.72;100.00;52709.44;4992928;28;20033;-73
2023/09/26 08:32:11;;;;;;;;;;;;;;;-140.72;100.00;52670.88;4983389;28;19926;-73
2023/09/26 08:34:37;;;;;;;;;;;;;;;-140.72;100.00;52666.84;4989401;28;19936;-73
2023/09/26 08:37:02;;;;;;;;;;;;;;;-140.72;100.00;52689.16;4997221;28;19961;-73
2023/09/26 08:39:27;;;;;;;;;;;;;;;-140.72;100.00;52664.81;4992794;28;20012;-78
2023/09/26 08:41:53;;;;;;;;;;;;;;;-140.72;100.00;52683.06;4994332;28;20015;-73
2023/09/26 08:44:18;;;;;;;;;;;;;;;-140.72;100.00;52697.28;4994408;28;19937;-74
2023/09/26 08:46:44;;;;;;;;;;;;;;;-140.72;100.00;52638.41;4989575;28;20341;-73
2023/09/26 08:49:10;;;;;;;;;;;;;;;-140.72;100.00;52650.59;4994478;28;20423;-75
2023/09/26 08:51:35;;;;;;;;;;;;;;;-140.72;100.00;52670.88;4994853;28;20012;-73
2023/09/26 08:54:00;;;;;;;;;;;;;;;-140.72;100.00;52646.53;4992281;28;19922;-73
2023/09/26 08:56:26;;;;;;;;;;;;;;;-140.72;100.00;52658.72;4992992;28;19965;-73
2023/09/26 08:58:53;;;;;;;;;;;;;;;-140.72;100.00;52666.84;4994743;28;19922;-73
2023/09/26 09:01:19;;;;;;;;;;;;;;;-140.72;100.00;52674.94;5012418;28;19922;-73
2023/09/26 09:03:44;;;;;;;;;;;;;;;-140.72;100.00;52654.66;4991579;28;19922;-73
2023/09/26 09:06:09;;;;;;;;;;;;;;;-140.72;100.00;52679.00;4983737;28;20300;-73
2023/09/26 09:08:34;;;;;;;;;;;;;;;-140.72;100.00;52628.28;4992260;28;20351;-73
2023/09/26 09:11:00;;;;;;;;;;;;;;;-140.72;100.00;52658.72;4992035;28;20336;-73
2023/09/26 09:13:32;;;;;;;;;;;;;;;-140.72;100.00;52693.22;4989023;28;19992;-73
2023/09/26 09:16:16;;;;;;;;;;;;;;;-140.72;100.00;52662.78;4990919;28;19922;-72
2023/09/26 09:18:43;;;;;;;;;;;;;;;-140.72;100.00;52683.06;4978033;28;19984;-73
2023/09/26 09:21:21;;;;;;;;;;;;;;;-140.72;100.00;52642.47;4983941;28;20022;-73
2023/09/26 09:23:47;;;;;;;;;;;;;;;-140.72;100.00;52670.88;4990629;28;20307;-72
2023/09/26 09:26:12;;;;;;;;;;;;;;;-140.72;100.00;52658.72;4989111;28;19928;-73
2023/09/26 09:28:37;;;;;;;;;;;;;;;-140.72;100.00;52670.88;4990494;28;20020;-72
2023/09/26 09:31:02;;;;;;;;;;;;;;;-140.72;100.00;52674.94;5009140;28;19944;-72
2023/09/26 09:33:28;;;;;;;;;;;;;;;-140.72;100.00;52662.78;4992376;28;19980;-73
2023/09/26 09:35:53;;;;;;;;;;;;;;;-140.72;100.00;52685.09;4993933;28;19921;-72
2023/09/26 09:38:18;;;;;;;;;;;;;;;-140.72;100.00;52634.38;4992486;28;19957;-73
2023/09/26 09:40:44;;;;;;;;;;;;;;;-140.72;100.00;52676.97;4990963;28;19948;-72
2023/09/26 09:43:09;;;;;;;;;;;;;;;-140.72;100.00;52664.81;4989185;28;19932;-73
2023/09/26 09:45:35;;;;;;;;;;;;;;;-140.72;100.00;52658.72;4988774;28;19968;-74
2023/09/26 09:48:02;;;;;;;;;;;;;;;-140.72;100.00;52632.34;4987687;28;19937;-74
2023/09/26 09:50:27;;;;;;;;;;;;;;;-140.72;100.00;52654.66;4988775;28;19952;-74
2023/09/26 09:52:56;;;;;;;;;;;;;;;-140.72;100.00;52642.47;4992116;28;19933;-75
2023/09/26 09:55:23;;;;;;;;;;;;;;;-140.72;100.00;52640.44;4988138;28;19925;-74
2023/09/26 09:57:52;;;;;;;;;;;;;;;-140.72;100.00;52646.53;5001502;28;20380;-74
2023/09/26 10:00:19;;;;;;;;;;;;;;;-140.72;100.00;52624.22;4983281;28;19988;-74
2023/09/26 10:02:45;;;;;;;;;;;;;;;-140.72;100.00;52620.16;4982844;28;20319;-73
2023/09/26 10:05:12;;;;;;;;;;;;;;;-140.72;100.00;52612.03;4986818;28;19937;-73
2023/09/26 10:07:39;;;;;;;;;;;;;;;-140.72;100.00;52616.09;4983923;28;19930;-74
2023/09/26 10:10:09;;;;;;;;;;;;;;;-140.72;100.00;52589.72;4986972;28;19922;-73
2023/09/26 10:12:34;;;;;;;;;;;;;;;-140.72;100.00;52593.78;4987829;28;19922;-73
2023/09/26 10:14:59;;;;;;;;;;;;;;;-140.72;100.00;52571.47;4987668;28;20307;-73
2023/09/26 10:17:25;;;;;;;;;;;;;;;-140.72;100.00;52569.44;4983994;28;19977;-73
2023/09/26 10:19:50;;;;;;;;;;;;;;;-140.72;100.00;52561.31;4985139;28;19930;-74
2023/09/26 10:22:19;;;;;;;;;;;;;;;-140.72;100.00;52610.00;4987426;28;20351;-74
2023/09/26 10:24:53;;;;;;;;;;;;;;;-140.72;100.00;52569.44;4985935;28;19961;-74
2023/09/26 10:27:27;;;;;;;;;;;;;;;-140.72;100.00;52516.66;4984545;28;19930;-74
2023/09/26 10:29:53;;;;;;;;;;;;;;;-140.72;100.00;52486.22;4984522;28;19922;-74
2023/09/26 10:32:35;;;;;;;;;;;;;;;-140.72;100.00;52472.03;4984642;28;19953;-74
2023/09/26 10:35:20;;;;;;;;;;;;;;;-140.72;100.00;52457.81;4982077;28;19926;-74
2023/09/26 10:37:50;;;;;;;;;;;;;;;-140.72;100.00;52427.38;4983455;28;20383;-72
2023/09/26 10:40:16;;;;;;;;;;;;;;;-140.72;100.00;52415.22;4981278;28;19936;-73
2023/09/26 10:42:42;;;;;;;;;;;;;;;-140.72;100.00;52425.34;4988732;28;19973;-73
2023/09/26 10:45:09;;;;;;;;;;;;;;;-140.72;100.00;52384.78;4981199;28;20570;-75
2023/09/26 10:47:37;;;;;;;;;;;;;;;-140.72;100.00;52350.28;4987222;28;19945;-73
2023/09/26 10:50:03;;;;;;;;;;;;;;;-140.72;100.00;52350.28;4985445;28;20310;-75
2023/09/26 10:52:29;;;;;;;;;;;;;;;-140.72;100.00;52309.69;4976360;28;19933;-72
2023/09/26 10:54:55;;;;;;;;;;;;;;;-140.72;0.00;52218.38;4990329;28;19929;-73
2023/09/26 10:57:23;;;;;;;;;;;;;;;-140.72;0.00;52230.56;4991106;28;19922;-72
2023/09/26 11:00:10;;;;;;;;;;;;;;;-140.72;0.00;52323.91;4992637;28;19972;-72
2023/09/26 11:02:36;;;;;;;;;;;;;;;-140.72;0.00;52299.56;4991308;28;19929;-72
2023/09/26 11:05:05;;;;;;;;;;;;;;;-140.72;0.00;52250.84;4996935;28;19926;-72
2023/09/26 11:07:30;;;;;;;;;;;;;;;-140.72;0.00;52291.44;4990642;28;19997;-72
2023/09/26 11:09:55;;;;;;;;;;;;;;;-140.72;0.00;52254.91;4988347;28;20025;-72
2023/09/26 11:12:22;;;;;;;;;;;;;;;-140.72;0.00;52246.78;4985538;28;19922;-72
2023/09/26 11:14:47;;;;;;;;;;;;;;;-140.72;0.00;52228.53;4986226;28;20300;-72
2023/09/26 11:17:16;;;;;;;;;;;;;;;-140.72;0.00;52364.47;4983234;28;19922;-71
2023/09/26 11:19:41;;;;;;;;;;;;;;;-140.72;0.00;52372.59;4992785;28;20367;-71
2023/09/26 11:22:08;;;;;;;;;;;;;;;-140.72;0.00;52409.13;4990915;28;20020;-71
2023/09/26 11:24:40;;;;;;;;;;;;;;;-140.72;25.23;52415.22;4992078;28;19918;-71
2023/09/26 11:27:05;;;;;;;;;;;;;;;-140.72;0.00;52388.84;4992364;28;19928;-71
2023/09/26 11:29:33;;;;;;;;;;;;;;;-140.72;0.00;52401.00;4991636;28;19922;-71
2023/09/26 11:31:59;;;;;;;;;;;;;;;-140.72;0.00;52279.25;4990972;28;19921;-71
2023/09/26 11:34:26;;;;;;;;;;;;;;;-140.72;0.00;52137.22;4989245;28;19925;-71
2023/09/26 11:36:51;;;;;;;;;;;;;;;-140.72;0.00;52297.53;4989918;28;19972;-71
2023/09/26 11:39:17;;;;;;;;;;;;;;;-140.72;0.00;52336.06;4991038;28;19957;-71
2023/09/26 11:41:42;;;;;;;;;;;;;;;-140.72;0.00;52358.41;4988289;28;20406;-71
2023/09/26 11:44:11;;;;;;;;;;;;;;;-140.72;0.00;52411.16;4990237;28;20032;-71
2023/09/26 11:46:37;;;;;;;;;;;;;;;-140.72;0.00;52433.47;4983382;28;19930;-71
2023/09/26 11:49:03;;;;;;;;;;;;;;;-140.72;0.00;52415.22;4992281;28;19957;-71
2023/09/26 11:51:28;;;;;;;;;;;;;;;-140.72;39.94;52417.25;4991049;28;19964;-71
2023/09/26 11:53:54;;;;;;;;;;;;;;;-140.72;3.28;52394.91;4984684;28;19937;-71
2023/09/26 11:56:25;;;;;;;;;;;;;;;-140.72;27.00;52411.16;4993565;28;19973;-71
2023/09/26 11:58:50;;;;;;;;;;;;;;;-140.72;0.00;52417.25;4999730;28;19976;-71
2023/09/26 12:01:15;;;;;;;;;;;;;;;-140.72;19.17;52461.88;4994289;28;19957;-71
2023/09/26 12:03:40;;;;;;;;;;;;;;;-140.72;22.98;52472.03;4983829;28;20111;-71
2023/09/26 12:06:06;;;;;;;;;;;;;;;-140.72;23.67;52480.16;4990747;28;19922;-71
2023/09/26 12:08:31;;;;;;;;;;;;;;;-140.72;36.13;52504.50;4992589;28;19976;-71
2023/09/26 12:10:57;;;;;;;;;;;;;;;-140.72;78.49;52484.19;4987325;28;20492;-70
2023/09/26 12:13:22;;;;;;;;;;;;;;;-140.72;96.15;52405.06;4991833;28;20419;-71
2023/09/26 12:15:47;;;;;;;;;;;;;;;-140.72;70.45;52419.28;4992389;28;20016;-72
2023/09/26 12:18:12;;;;;;;;;;;;;;;-140.72;0.00;52384.78;4992466;28;19937;-72
2023/09/26 12:20:38;;;;;;;;;;;;;;;-140.72;0.00;52368.53;4990528;28;19930;-72
2023/09/26 12:23:04;;;;;;;;;;;;;;;-140.72;0.00;52321.88;4992412;28;19921;-72